sensor_id;sensor_type;location;lat;lon;timestamp;P1;durP1;ratioP1;P2;durP2;ratioP2
17650;SDS011;26663;59.302;18.082;2024-01-16T00:00:42;1.30;;;1.30;;
17650;SDS011;26663;59.302;18.082;2024-01-16T00:03:46;1.20;;;1.20;;
17650;SDS011;26663;59.302;18.082;2024-01-16T00:06:50;1.10;;;1.10;;
17650;SDS011;26663;59.302;18.082;2024-01-16T00:09:54;1.00;;;1.00;;
17650;SDS011;26663;59.302;18.082;2024-01-16T00:12:58;1.50;;;1.50;;
17650;SDS011;26663;59.302;18.082;2024-01-16T00:16:04;1.20;;;1.20;;
17650;SDS011;26663;59.302;18.082;2024-01-16T00:19:09;1.30;;;1.30;;
17650;SDS011;26663;59.302;18.082;2024-01-16T00:22:13;1.60;;;1.50;;
17650;SDS011;26663;59.302;18.082;2024-01-16T00:25:17;2.63;;;1.30;;
17650;SDS011;26663;59.302;18.082;2024-01-16T00:28:22;1.00;;;1.00;;
17650;SDS011;26663;59.302;18.082;2024-01-16T00:31:27;1.80;;;1.40;;
17650;SDS011;26663;59.302;18.082;2024-01-16T00:34:31;1.23;;;1.10;;
17650;SDS011;26663;59.302;18.082;2024-01-16T00:37:35;1.30;;;1.30;;
17650;SDS011;26663;59.302;18.082;2024-01-16T00:40:40;1.30;;;1.30;;
17650;SDS011;26663;59.302;18.082;2024-01-16T00:43:44;1.00;;;1.00;;
17650;SDS011;26663;59.302;18.082;2024-01-16T00:46:49;1.50;;;1.10;;
17650;SDS011;26663;59.302;18.082;2024-01-16T00:49:53;1.90;;;1.17;;
17650;SDS011;26663;59.302;18.082;2024-01-16T00:52:57;1.20;;;1.20;;
17650;SDS011;26663;59.302;18.082;2024-01-16T00:56:01;1.00;;;1.00;;
17650;SDS011;26663;59.302;18.082;2024-01-16T00:59:05;1.20;;;1.20;;
17650;SDS011;26663;59.302;18.082;2024-01-16T01:02:11;0.90;;;0.90;;
17650;SDS011;26663;59.302;18.082;2024-01-16T01:05:15;1.17;;;1.17;;
17650;SDS011;26663;59.302;18.082;2024-01-16T01:08:19;1.00;;;1.00;;
17650;SDS011;26663;59.302;18.082;2024-01-16T01:11:23;1.20;;;1.20;;
17650;SDS011;26663;59.302;18.082;2024-01-16T01:14:27;1.33;;;1.10;;
17650;SDS011;26663;59.302;18.082;2024-01-16T01:17:34;1.07;;;1.07;;
17650;SDS011;26663;59.302;18.082;2024-01-16T01:20:38;1.23;;;1.23;;
17650;SDS011;26663;59.302;18.082;2024-01-16T01:23:43;1.20;;;1.20;;
17650;SDS011;26663;59.302;18.082;2024-01-16T01:26:47;1.03;;;1.03;;
17650;SDS011;26663;59.302;18.082;2024-01-16T01:29:51;1.20;;;1.20;;
17650;SDS011;26663;59.302;18.082;2024-01-16T01:32:57;1.10;;;1.10;;
17650;SDS011;26663;59.302;18.082;2024-01-16T01:36:01;1.10;;;1.10;;
17650;SDS011;26663;59.302;18.082;2024-01-16T01:39:04;1.10;;;1.10;;
17650;SDS011;26663;59.302;18.082;2024-01-16T01:42:09;1.00;;;1.00;;
17650;SDS011;26663;59.302;18.082;2024-01-16T01:45:13;1.00;;;1.00;;
17650;SDS011;26663;59.302;18.082;2024-01-16T01:48:18;1.10;;;1.10;;
17650;SDS011;26663;59.302;18.082;2024-01-16T01:51:23;1.33;;;1.10;;
17650;SDS011;26663;59.302;18.082;2024-01-16T01:54:27;1.00;;;1.00;;
17650;SDS011;26663;59.302;18.082;2024-01-16T01:57:33;0.97;;;0.97;;
17650;SDS011;26663;59.302;18.082;2024-01-16T02:00:37;1.07;;;1.03;;
17650;SDS011;26663;59.302;18.082;2024-01-16T02:03:43;1.00;;;1.00;;
17650;SDS011;26663;59.302;18.082;2024-01-16T02:06:48;0.97;;;0.97;;
17650;SDS011;26663;59.302;18.082;2024-01-16T02:09:52;0.90;;;0.90;;
17650;SDS011;26663;59.302;18.082;2024-01-16T02:12:56;1.23;;;0.97;;
17650;SDS011;26663;59.302;18.082;2024-01-16T02:16:00;0.97;;;0.97;;
17650;SDS011;26663;59.302;18.082;2024-01-16T02:19:07;1.03;;;1.03;;
17650;SDS011;26663;59.302;18.082;2024-01-16T02:22:12;1.10;;;1.10;;
17650;SDS011;26663;59.302;18.082;2024-01-16T02:25:21;1.07;;;1.07;;
17650;SDS011;26663;59.302;18.082;2024-01-16T02:28:25;1.43;;;1.00;;
17650;SDS011;26663;59.302;18.082;2024-01-16T02:31:29;1.00;;;1.00;;
17650;SDS011;26663;59.302;18.082;2024-01-16T02:34:32;1.00;;;1.00;;
17650;SDS011;26663;59.302;18.082;2024-01-16T02:37:36;0.90;;;0.90;;
17650;SDS011;26663;59.302;18.082;2024-01-16T02:40:41;0.90;;;0.90;;
17650;SDS011;26663;59.302;18.082;2024-01-16T02:43:46;1.00;;;1.00;;
17650;SDS011;26663;59.302;18.082;2024-01-16T02:46:50;0.90;;;0.90;;
17650;SDS011;26663;59.302;18.082;2024-01-16T02:49:54;0.90;;;0.90;;
17650;SDS011;26663;59.302;18.082;2024-01-16T02:52:57;0.97;;;0.97;;
17650;SDS011;26663;59.302;18.082;2024-01-16T02:56:03;0.80;;;0.80;;
17650;SDS011;26663;59.302;18.082;2024-01-16T02:59:08;1.03;;;1.03;;
17650;SDS011;26663;59.302;18.082;2024-01-16T03:02:12;1.07;;;1.07;;
17650;SDS011;26663;59.302;18.082;2024-01-16T03:05:16;0.90;;;0.90;;
17650;SDS011;26663;59.302;18.082;2024-01-16T03:08:20;0.90;;;0.90;;
17650;SDS011;26663;59.302;18.082;2024-01-16T03:11:26;1.23;;;1.23;;
17650;SDS011;26663;59.302;18.082;2024-01-16T03:14:33;2.57;;;0.80;;
17650;SDS011;26663;59.302;18.082;2024-01-16T03:17:39;0.93;;;0.93;;
17650;SDS011;26663;59.302;18.082;2024-01-16T03:20:43;1.00;;;1.00;;
17650;SDS011;26663;59.302;18.082;2024-01-16T03:23:47;1.30;;;0.90;;
17650;SDS011;26663;59.302;18.082;2024-01-16T03:26:53;1.10;;;1.00;;
17650;SDS011;26663;59.302;18.082;2024-01-16T03:29:56;1.00;;;1.00;;
17650;SDS011;26663;59.302;18.082;2024-01-16T03:33:01;0.93;;;0.93;;
17650;SDS011;26663;59.302;18.082;2024-01-16T03:36:06;1.00;;;1.00;;
17650;SDS011;26663;59.302;18.082;2024-01-16T03:39:10;1.07;;;1.07;;
17650;SDS011;26663;59.302;18.082;2024-01-16T03:42:17;1.10;;;1.10;;
17650;SDS011;26663;59.302;18.082;2024-01-16T03:45:22;1.10;;;1.10;;
17650;SDS011;26663;59.302;18.082;2024-01-16T03:48:25;1.00;;;1.00;;
17650;SDS011;26663;59.302;18.082;2024-01-16T03:51:30;1.23;;;1.23;;
17650;SDS011;26663;59.302;18.082;2024-01-16T03:54:34;1.10;;;1.07;;
17650;SDS011;26663;59.302;18.082;2024-01-16T03:57:39;0.97;;;0.97;;
17650;SDS011;26663;59.302;18.082;2024-01-16T04:00:44;1.07;;;1.07;;
17650;SDS011;26663;59.302;18.082;2024-01-16T04:03:48;1.03;;;1.03;;
17650;SDS011;26663;59.302;18.082;2024-01-16T04:06:52;1.10;;;1.10;;
17650;SDS011;26663;59.302;18.082;2024-01-16T04:09:56;1.03;;;1.00;;
17650;SDS011;26663;59.302;18.082;2024-01-16T04:13:02;1.10;;;1.10;;
17650;SDS011;26663;59.302;18.082;2024-01-16T04:16:06;1.00;;;1.00;;
17650;SDS011;26663;59.302;18.082;2024-01-16T04:19:10;1.10;;;1.10;;
17650;SDS011;26663;59.302;18.082;2024-01-16T04:22:15;1.10;;;1.00;;
17650;SDS011;26663;59.302;18.082;2024-01-16T04:25:18;0.90;;;0.90;;
17650;SDS011;26663;59.302;18.082;2024-01-16T04:28:24;1.10;;;1.00;;
17650;SDS011;26663;59.302;18.082;2024-01-16T04:31:28;1.00;;;1.00;;
17650;SDS011;26663;59.302;18.082;2024-01-16T04:34:32;0.93;;;0.93;;
17650;SDS011;26663;59.302;18.082;2024-01-16T04:37:36;1.10;;;1.10;;
17650;SDS011;26663;59.302;18.082;2024-01-16T04:40:40;1.00;;;1.00;;
17650;SDS011;26663;59.302;18.082;2024-01-16T04:43:46;1.20;;;1.20;;
17650;SDS011;26663;59.302;18.082;2024-01-16T04:46:51;1.60;;;1.10;;
17650;SDS011;26663;59.302;18.082;2024-01-16T04:49:55;1.10;;;1.10;;
17650;SDS011;26663;59.302;18.082;2024-01-16T04:52:59;1.00;;;1.00;;
17650;SDS011;26663;59.302;18.082;2024-01-16T04:56:03;0.93;;;0.93;;
17650;SDS011;26663;59.302;18.082;2024-01-16T04:59:09;1.10;;;1.10;;
17650;SDS011;26663;59.302;18.082;2024-01-16T05:02:16;0.93;;;0.93;;
17650;SDS011;26663;59.302;18.082;2024-01-16T05:05:21;0.93;;;0.93;;
17650;SDS011;26663;59.302;18.082;2024-01-16T05:08:28;3.53;;;1.10;;
17650;SDS011;26663;59.302;18.082;2024-01-16T05:11:33;1.00;;;1.00;;
17650;SDS011;26663;59.302;18.082;2024-01-16T05:14:38;1.10;;;1.10;;
17650;SDS011;26663;59.302;18.082;2024-01-16T05:17:42;1.00;;;1.00;;
17650;SDS011;26663;59.302;18.082;2024-01-16T05:20:46;1.20;;;1.20;;
17650;SDS011;26663;59.302;18.082;2024-01-16T05:23:50;0.90;;;0.90;;
17650;SDS011;26663;59.302;18.082;2024-01-16T05:26:54;4.77;;;1.00;;
17650;SDS011;26663;59.302;18.082;2024-01-16T05:29:59;1.27;;;1.27;;
17650;SDS011;26663;59.302;18.082;2024-01-16T05:33:05;1.00;;;1.00;;
17650;SDS011;26663;59.302;18.082;2024-01-16T05:36:09;1.00;;;1.00;;
17650;SDS011;26663;59.302;18.082;2024-01-16T05:39:14;1.10;;;1.10;;
17650;SDS011;26663;59.302;18.082;2024-01-16T05:42:19;1.10;;;1.10;;
17650;SDS011;26663;59.302;18.082;2024-01-16T05:45:24;1.07;;;1.07;;
17650;SDS011;26663;59.302;18.082;2024-01-16T05:48:28;1.10;;;1.10;;
17650;SDS011;26663;59.302;18.082;2024-01-16T05:51:33;1.10;;;1.10;;
17650;SDS011;26663;59.302;18.082;2024-01-16T05:54:37;1.30;;;1.30;;
17650;SDS011;26663;59.302;18.082;2024-01-16T05:57:41;1.10;;;1.10;;
17650;SDS011;26663;59.302;18.082;2024-01-16T06:00:47;1.97;;;1.17;;
17650;SDS011;26663;59.302;18.082;2024-01-16T06:03:51;1.17;;;1.17;;
17650;SDS011;26663;59.302;18.082;2024-01-16T06:06:55;1.00;;;1.00;;
17650;SDS011;26663;59.302;18.082;2024-01-16T06:09:59;1.10;;;1.10;;
17650;SDS011;26663;59.302;18.082;2024-01-16T06:13:02;1.10;;;1.10;;
17650;SDS011;26663;59.302;18.082;2024-01-16T06:16:08;1.20;;;1.20;;
17650;SDS011;26663;59.302;18.082;2024-01-16T06:19:12;1.00;;;1.00;;
17650;SDS011;26663;59.302;18.082;2024-01-16T06:22:17;1.17;;;1.17;;
17650;SDS011;26663;59.302;18.082;2024-01-16T06:25:20;1.17;;;1.00;;
17650;SDS011;26663;59.302;18.082;2024-01-16T06:28:24;1.10;;;1.10;;
17650;SDS011;26663;59.302;18.082;2024-01-16T06:31:30;1.30;;;1.20;;
17650;SDS011;26663;59.302;18.082;2024-01-16T06:34:34;1.20;;;1.20;;
17650;SDS011;26663;59.302;18.082;2024-01-16T06:37:38;1.07;;;1.07;;
17650;SDS011;26663;59.302;18.082;2024-01-16T06:40:42;1.13;;;1.13;;
17650;SDS011;26663;59.302;18.082;2024-01-16T06:43:46;1.20;;;1.20;;
17650;SDS011;26663;59.302;18.082;2024-01-16T06:46:51;1.20;;;1.20;;
17650;SDS011;26663;59.302;18.082;2024-01-16T06:49:56;1.20;;;1.20;;
17650;SDS011;26663;59.302;18.082;2024-01-16T06:53:00;2.43;;;1.30;;
17650;SDS011;26663;59.302;18.082;2024-01-16T06:56:05;1.20;;;1.20;;
17650;SDS011;26663;59.302;18.082;2024-01-16T06:59:09;1.20;;;1.20;;
17650;SDS011;26663;59.302;18.082;2024-01-16T07:02:15;1.40;;;1.10;;
17650;SDS011;26663;59.302;18.082;2024-01-16T07:05:19;1.20;;;1.20;;
17650;SDS011;26663;59.302;18.082;2024-01-16T07:08:23;1.33;;;1.23;;
17650;SDS011;26663;59.302;18.082;2024-01-16T07:11:27;1.17;;;1.17;;
17650;SDS011;26663;59.302;18.082;2024-01-16T07:14:31;5.13;;;1.27;;
17650;SDS011;26663;59.302;18.082;2024-01-16T07:17:37;1.33;;;1.33;;
17650;SDS011;26663;59.302;18.082;2024-01-16T07:20:42;1.00;;;1.00;;
17650;SDS011;26663;59.302;18.082;2024-01-16T07:23:47;1.90;;;1.30;;
17650;SDS011;26663;59.302;18.082;2024-01-16T07:26:51;1.10;;;1.10;;
17650;SDS011;26663;59.302;18.082;2024-01-16T07:29:56;1.20;;;1.20;;
17650;SDS011;26663;59.302;18.082;2024-01-16T07:33:02;1.10;;;1.10;;
17650;SDS011;26663;59.302;18.082;2024-01-16T07:36:07;1.30;;;1.30;;
17650;SDS011;26663;59.302;18.082;2024-01-16T07:39:12;1.40;;;1.40;;
17650;SDS011;26663;59.302;18.082;2024-01-16T07:42:16;1.20;;;1.20;;
17650;SDS011;26663;59.302;18.082;2024-01-16T07:45:20;1.30;;;1.30;;
17650;SDS011;26663;59.302;18.082;2024-01-16T07:48:25;1.60;;;1.60;;
17650;SDS011;26663;59.302;18.082;2024-01-16T07:51:30;1.37;;;1.27;;
17650;SDS011;26663;59.302;18.082;2024-01-16T07:54:34;1.10;;;1.10;;
17650;SDS011;26663;59.302;18.082;2024-01-16T07:57:38;1.30;;;1.30;;
17650;SDS011;26663;59.302;18.082;2024-01-16T08:00:42;1.20;;;1.20;;
17650;SDS011;26663;59.302;18.082;2024-01-16T08:03:47;1.20;;;1.20;;
17650;SDS011;26663;59.302;18.082;2024-01-16T08:06:52;1.40;;;1.40;;
17650;SDS011;26663;59.302;18.082;2024-01-16T08:09:57;1.40;;;1.30;;
17650;SDS011;26663;59.302;18.082;2024-01-16T08:13:01;1.30;;;1.30;;
17650;SDS011;26663;59.302;18.082;2024-01-16T08:16:05;1.63;;;1.63;;
17650;SDS011;26663;59.302;18.082;2024-01-16T08:19:14;1.30;;;1.30;;
17650;SDS011;26663;59.302;18.082;2024-01-16T08:22:19;1.10;;;1.10;;
17650;SDS011;26663;59.302;18.082;2024-01-16T08:25:23;2.37;;;1.20;;
17650;SDS011;26663;59.302;18.082;2024-01-16T08:28:27;1.27;;;1.27;;
17650;SDS011;26663;59.302;18.082;2024-01-16T08:31:31;1.73;;;1.50;;
17650;SDS011;26663;59.302;18.082;2024-01-16T08:34:36;1.20;;;1.20;;
17650;SDS011;26663;59.302;18.082;2024-01-16T08:37:40;1.30;;;1.30;;
17650;SDS011;26663;59.302;18.082;2024-01-16T08:40:44;1.10;;;1.10;;
17650;SDS011;26663;59.302;18.082;2024-01-16T08:43:48;1.40;;;1.40;;
17650;SDS011;26663;59.302;18.082;2024-01-16T08:46:53;1.43;;;1.23;;
17650;SDS011;26663;59.302;18.082;2024-01-16T08:49:58;1.50;;;1.50;;
17650;SDS011;26663;59.302;18.082;2024-01-16T08:53:02;1.37;;;1.37;;
17650;SDS011;26663;59.302;18.082;2024-01-16T08:56:06;1.20;;;1.20;;
17650;SDS011;26663;59.302;18.082;2024-01-16T08:59:11;1.40;;;1.30;;
17650;SDS011;26663;59.302;18.082;2024-01-16T09:02:15;1.33;;;1.33;;
17650;SDS011;26663;59.302;18.082;2024-01-16T09:05:20;1.53;;;1.50;;
17650;SDS011;26663;59.302;18.082;2024-01-16T09:08:28;1.40;;;1.40;;
17650;SDS011;26663;59.302;18.082;2024-01-16T09:11:32;1.10;;;1.10;;
17650;SDS011;26663;59.302;18.082;2024-01-16T09:14:36;1.37;;;1.37;;
17650;SDS011;26663;59.302;18.082;2024-01-16T09:17:40;1.40;;;1.40;;
17650;SDS011;26663;59.302;18.082;2024-01-16T09:20:45;1.30;;;1.30;;
17650;SDS011;26663;59.302;18.082;2024-01-16T09:23:50;1.30;;;1.30;;
17650;SDS011;26663;59.302;18.082;2024-01-16T09:26:55;1.53;;;1.53;;
17650;SDS011;26663;59.302;18.082;2024-01-16T09:30:00;3.30;;;1.30;;
17650;SDS011;26663;59.302;18.082;2024-01-16T09:33:04;1.30;;;1.30;;
17650;SDS011;26663;59.302;18.082;2024-01-16T09:36:11;1.30;;;1.30;;
17650;SDS011;26663;59.302;18.082;2024-01-16T09:39:14;1.40;;;1.40;;
17650;SDS011;26663;59.302;18.082;2024-01-16T09:42:20;1.40;;;1.40;;
17650;SDS011;26663;59.302;18.082;2024-01-16T09:45:25;1.37;;;1.03;;
17650;SDS011;26663;59.302;18.082;2024-01-16T09:48:30;1.50;;;1.40;;
17650;SDS011;26663;59.302;18.082;2024-01-16T09:51:36;1.60;;;1.30;;
17650;SDS011;26663;59.302;18.082;2024-01-16T09:54:41;1.90;;;1.20;;
17650;SDS011;26663;59.302;18.082;2024-01-16T09:57:45;1.40;;;1.40;;
17650;SDS011;26663;59.302;18.082;2024-01-16T10:00:49;1.63;;;1.60;;
17650;SDS011;26663;59.302;18.082;2024-01-16T10:03:54;1.40;;;1.40;;
17650;SDS011;26663;59.302;18.082;2024-01-16T10:06:59;1.30;;;1.30;;
17650;SDS011;26663;59.302;18.082;2024-01-16T10:10:06;1.30;;;1.30;;
17650;SDS011;26663;59.302;18.082;2024-01-16T10:13:13;3.40;;;1.80;;
17650;SDS011;26663;59.302;18.082;2024-01-16T10:16:18;1.60;;;1.50;;
17650;SDS011;26663;59.302;18.082;2024-01-16T10:19:27;1.40;;;1.40;;
17650;SDS011;26663;59.302;18.082;2024-01-16T10:22:53;1.67;;;1.67;;
17650;SDS011;26663;59.302;18.082;2024-01-16T10:26:04;1.50;;;1.50;;
17650;SDS011;26663;59.302;18.082;2024-01-16T10:29:09;1.40;;;1.40;;
17650;SDS011;26663;59.302;18.082;2024-01-16T10:32:13;1.60;;;1.60;;
17650;SDS011;26663;59.302;18.082;2024-01-16T10:35:32;2.57;;;1.40;;
17650;SDS011;26663;59.302;18.082;2024-01-16T10:38:37;1.50;;;1.50;;
17650;SDS011;26663;59.302;18.082;2024-01-16T10:41:41;1.40;;;1.40;;
17650;SDS011;26663;59.302;18.082;2024-01-16T10:44:52;2.03;;;1.93;;
17650;SDS011;26663;59.302;18.082;2024-01-16T10:48:03;1.43;;;1.43;;
17650;SDS011;26663;59.302;18.082;2024-01-16T10:51:09;1.30;;;1.30;;
17650;SDS011;26663;59.302;18.082;2024-01-16T10:54:17;1.63;;;1.57;;
17650;SDS011;26663;59.302;18.082;2024-01-16T10:57:22;1.70;;;1.60;;
17650;SDS011;26663;59.302;18.082;2024-01-16T11:00:27;1.60;;;1.50;;
17650;SDS011;26663;59.302;18.082;2024-01-16T11:03:35;1.30;;;1.30;;
17650;SDS011;26663;59.302;18.082;2024-01-16T11:06:40;1.90;;;1.80;;
17650;SDS011;26663;59.302;18.082;2024-01-16T11:09:46;1.50;;;1.50;;
17650;SDS011;26663;59.302;18.082;2024-01-16T11:12:52;1.50;;;1.50;;
17650;SDS011;26663;59.302;18.082;2024-01-16T11:15:57;1.50;;;1.50;;
17650;SDS011;26663;59.302;18.082;2024-01-16T11:19:02;1.50;;;1.50;;
17650;SDS011;26663;59.302;18.082;2024-01-16T11:22:28;1.53;;;1.53;;
17650;SDS011;26663;59.302;18.082;2024-01-16T11:25:34;1.60;;;1.60;;
17650;SDS011;26663;59.302;18.082;2024-01-16T11:28:38;2.10;;;1.50;;
17650;SDS011;26663;59.302;18.082;2024-01-16T11:31:42;2.50;;;1.63;;
17650;SDS011;26663;59.302;18.082;2024-01-16T11:34:54;1.63;;;1.60;;
17650;SDS011;26663;59.302;18.082;2024-01-16T11:38:03;1.50;;;1.50;;
17650;SDS011;26663;59.302;18.082;2024-01-16T11:41:10;1.40;;;1.40;;
17650;SDS011;26663;59.302;18.082;2024-01-16T11:44:54;3.40;;;1.40;;
17650;SDS011;26663;59.302;18.082;2024-01-16T11:48:07;1.70;;;1.70;;
17650;SDS011;26663;59.302;18.082;2024-01-16T11:51:23;3.70;;;1.50;;
17650;SDS011;26663;59.302;18.082;2024-01-16T11:54:28;1.77;;;1.73;;
17650;SDS011;26663;59.302;18.082;2024-01-16T11:57:41;1.77;;;1.70;;
17650;SDS011;26663;59.302;18.082;2024-01-16T12:00:53;1.60;;;1.60;;
17650;SDS011;26663;59.302;18.082;2024-01-16T12:04:02;1.63;;;1.63;;
17650;SDS011;26663;59.302;18.082;2024-01-16T12:07:07;1.50;;;1.50;;
17650;SDS011;26663;59.302;18.082;2024-01-16T12:10:11;1.53;;;1.40;;
17650;SDS011;26663;59.302;18.082;2024-01-16T12:13:17;1.40;;;1.40;;
17650;SDS011;26663;59.302;18.082;2024-01-16T12:16:21;1.30;;;1.30;;
17650;SDS011;26663;59.302;18.082;2024-01-16T12:19:25;1.53;;;1.43;;
17650;SDS011;26663;59.302;18.082;2024-01-16T12:22:31;1.70;;;1.47;;
17650;SDS011;26663;59.302;18.082;2024-01-16T12:25:36;2.67;;;1.53;;
17650;SDS011;26663;59.302;18.082;2024-01-16T12:29:02;1.43;;;1.30;;
17650;SDS011;26663;59.302;18.082;2024-01-16T12:32:07;1.17;;;1.17;;
17650;SDS011;26663;59.302;18.082;2024-01-16T12:35:12;1.37;;;1.17;;
17650;SDS011;26663;59.302;18.082;2024-01-16T12:38:21;1.53;;;1.53;;
17650;SDS011;26663;59.302;18.082;2024-01-16T12:41:27;1.50;;;1.20;;
17650;SDS011;26663;59.302;18.082;2024-01-16T12:44:44;2.80;;;1.47;;
17650;SDS011;26663;59.302;18.082;2024-01-16T12:47:54;1.30;;;1.30;;
17650;SDS011;26663;59.302;18.082;2024-01-16T12:51:00;1.40;;;1.30;;
17650;SDS011;26663;59.302;18.082;2024-01-16T12:54:10;1.20;;;1.20;;
17650;SDS011;26663;59.302;18.082;2024-01-16T12:57:18;1.30;;;1.30;;
17650;SDS011;26663;59.302;18.082;2024-01-16T13:00:25;1.40;;;1.30;;
17650;SDS011;26663;59.302;18.082;2024-01-16T13:03:29;1.30;;;1.30;;
17650;SDS011;26663;59.302;18.082;2024-01-16T13:06:34;1.30;;;1.30;;
17650;SDS011;26663;59.302;18.082;2024-01-16T13:09:39;1.30;;;1.30;;
17650;SDS011;26663;59.302;18.082;2024-01-16T13:12:43;2.63;;;1.40;;
17650;SDS011;26663;59.302;18.082;2024-01-16T13:15:49;1.30;;;1.30;;
17650;SDS011;26663;59.302;18.082;2024-01-16T13:18:59;1.40;;;1.40;;
17650;SDS011;26663;59.302;18.082;2024-01-16T13:22:04;1.33;;;1.33;;
17650;SDS011;26663;59.302;18.082;2024-01-16T13:25:09;1.70;;;1.30;;
17650;SDS011;26663;59.302;18.082;2024-01-16T13:28:13;1.20;;;1.20;;
17650;SDS011;26663;59.302;18.082;2024-01-16T13:31:19;1.57;;;1.47;;
17650;SDS011;26663;59.302;18.082;2024-01-16T13:34:23;1.13;;;1.13;;
17650;SDS011;26663;59.302;18.082;2024-01-16T13:37:28;1.20;;;1.20;;
17650;SDS011;26663;59.302;18.082;2024-01-16T13:40:32;1.10;;;1.10;;
17650;SDS011;26663;59.302;18.082;2024-01-16T13:43:36;1.00;;;1.00;;
17650;SDS011;26663;59.302;18.082;2024-01-16T13:46:42;1.10;;;1.10;;
17650;SDS011;26663;59.302;18.082;2024-01-16T13:50:06;1.30;;;1.30;;
17650;SDS011;26663;59.302;18.082;2024-01-16T13:53:11;1.13;;;1.13;;
17650;SDS011;26663;59.302;18.082;2024-01-16T13:56:16;1.47;;;1.37;;
17650;SDS011;26663;59.302;18.082;2024-01-16T13:59:38;1.40;;;1.40;;
17650;SDS011;26663;59.302;18.082;2024-01-16T14:02:44;1.30;;;1.30;;
17650;SDS011;26663;59.302;18.082;2024-01-16T14:05:49;1.40;;;1.40;;
17650;SDS011;26663;59.302;18.082;2024-01-16T14:08:53;1.13;;;1.13;;
17650;SDS011;26663;59.302;18.082;2024-01-16T14:11:57;1.20;;;1.20;;
17650;SDS011;26663;59.302;18.082;2024-01-16T14:15:01;1.20;;;1.20;;
17650;SDS011;26663;59.302;18.082;2024-01-16T14:18:14;2.60;;;1.40;;
17650;SDS011;26663;59.302;18.082;2024-01-16T14:21:18;3.30;;;1.30;;
17650;SDS011;26663;59.302;18.082;2024-01-16T14:24:22;1.20;;;1.20;;
17650;SDS011;26663;59.302;18.082;2024-01-16T14:27:27;1.43;;;1.40;;
17650;SDS011;26663;59.302;18.082;2024-01-16T14:30:31;1.67;;;1.57;;
17650;SDS011;26663;59.302;18.082;2024-01-16T14:33:36;1.40;;;1.40;;
17650;SDS011;26663;59.302;18.082;2024-01-16T14:36:41;1.40;;;1.40;;
17650;SDS011;26663;59.302;18.082;2024-01-16T14:39:45;1.30;;;1.30;;
17650;SDS011;26663;59.302;18.082;2024-01-16T14:42:49;4.00;;;1.40;;
17650;SDS011;26663;59.302;18.082;2024-01-16T14:45:55;1.30;;;1.30;;
17650;SDS011;26663;59.302;18.082;2024-01-16T14:49:02;1.30;;;1.30;;
17650;SDS011;26663;59.302;18.082;2024-01-16T14:52:06;1.47;;;1.37;;
17650;SDS011;26663;59.302;18.082;2024-01-16T14:55:13;1.10;;;1.10;;
17650;SDS011;26663;59.302;18.082;2024-01-16T14:58:17;1.30;;;1.30;;
17650;SDS011;26663;59.302;18.082;2024-01-16T15:01:25;1.20;;;1.20;;
17650;SDS011;26663;59.302;18.082;2024-01-16T15:04:31;1.53;;;1.40;;
17650;SDS011;26663;59.302;18.082;2024-01-16T15:07:36;1.60;;;1.60;;
17650;SDS011;26663;59.302;18.082;2024-01-16T15:10:40;7.63;;;1.60;;
17650;SDS011;26663;59.302;18.082;2024-01-16T15:13:44;1.47;;;1.47;;
17650;SDS011;26663;59.302;18.082;2024-01-16T15:16:50;1.90;;;1.80;;
17650;SDS011;26663;59.302;18.082;2024-01-16T15:19:56;2.67;;;1.87;;
17650;SDS011;26663;59.302;18.082;2024-01-16T15:23:00;2.20;;;2.00;;
17650;SDS011;26663;59.302;18.082;2024-01-16T15:26:05;3.07;;;2.10;;
17650;SDS011;26663;59.302;18.082;2024-01-16T15:29:10;1.67;;;1.67;;
17650;SDS011;26663;59.302;18.082;2024-01-16T15:32:15;9.20;;;2.10;;
17650;SDS011;26663;59.302;18.082;2024-01-16T15:35:20;2.73;;;2.10;;
17650;SDS011;26663;59.302;18.082;2024-01-16T15:38:25;2.10;;;1.87;;
17650;SDS011;26663;59.302;18.082;2024-01-16T15:41:29;4.60;;;2.07;;
17650;SDS011;26663;59.302;18.082;2024-01-16T15:44:33;1.80;;;1.80;;
17650;SDS011;26663;59.302;18.082;2024-01-16T15:47:36;1.90;;;1.80;;
17650;SDS011;26663;59.302;18.082;2024-01-16T15:50:42;1.77;;;1.77;;
17650;SDS011;26663;59.302;18.082;2024-01-16T15:53:46;4.93;;;2.00;;
17650;SDS011;26663;59.302;18.082;2024-01-16T15:56:50;2.63;;;2.43;;
17650;SDS011;26663;59.302;18.082;2024-01-16T15:59:55;2.07;;;1.80;;
17650;SDS011;26663;59.302;18.082;2024-01-16T16:02:59;3.60;;;2.33;;
17650;SDS011;26663;59.302;18.082;2024-01-16T16:06:05;2.00;;;1.90;;
17650;SDS011;26663;59.302;18.082;2024-01-16T16:09:12;3.00;;;2.00;;
17650;SDS011;26663;59.302;18.082;2024-01-16T16:12:15;2.50;;;2.30;;
17650;SDS011;26663;59.302;18.082;2024-01-16T16:15:21;4.83;;;2.33;;
17650;SDS011;26663;59.302;18.082;2024-01-16T16:18:25;2.00;;;1.90;;
17650;SDS011;26663;59.302;18.082;2024-01-16T16:21:31;2.40;;;2.30;;
17650;SDS011;26663;59.302;18.082;2024-01-16T16:24:35;2.07;;;2.00;;
17650;SDS011;26663;59.302;18.082;2024-01-16T16:27:40;1.90;;;1.90;;
17650;SDS011;26663;59.302;18.082;2024-01-16T16:30:44;1.80;;;1.80;;
17650;SDS011;26663;59.302;18.082;2024-01-16T16:33:48;2.10;;;2.00;;
17650;SDS011;26663;59.302;18.082;2024-01-16T16:36:54;2.23;;;2.13;;
17650;SDS011;26663;59.302;18.082;2024-01-16T16:39:58;2.67;;;2.57;;
17650;SDS011;26663;59.302;18.082;2024-01-16T16:43:02;2.60;;;2.60;;
17650;SDS011;26663;59.302;18.082;2024-01-16T16:46:06;2.97;;;2.50;;
17650;SDS011;26663;59.302;18.082;2024-01-16T16:49:10;3.30;;;2.80;;
17650;SDS011;26663;59.302;18.082;2024-01-16T16:52:16;3.00;;;2.70;;
17650;SDS011;26663;59.302;18.082;2024-01-16T16:55:20;2.13;;;2.10;;
17650;SDS011;26663;59.302;18.082;2024-01-16T16:58:24;2.50;;;2.40;;
17650;SDS011;26663;59.302;18.082;2024-01-16T17:01:28;2.77;;;2.67;;
17650;SDS011;26663;59.302;18.082;2024-01-16T17:04:32;2.40;;;2.30;;
17650;SDS011;26663;59.302;18.082;2024-01-16T17:07:40;3.13;;;2.40;;
17650;SDS011;26663;59.302;18.082;2024-01-16T17:10:44;2.43;;;2.33;;
17650;SDS011;26663;59.302;18.082;2024-01-16T17:13:48;2.70;;;2.60;;
17650;SDS011;26663;59.302;18.082;2024-01-16T17:16:52;3.03;;;2.73;;
17650;SDS011;26663;59.302;18.082;2024-01-16T17:19:57;2.73;;;2.60;;
17650;SDS011;26663;59.302;18.082;2024-01-16T17:23:04;3.23;;;2.87;;
17650;SDS011;26663;59.302;18.082;2024-01-16T17:26:08;6.43;;;3.30;;
17650;SDS011;26663;59.302;18.082;2024-01-16T17:29:12;3.30;;;3.10;;
17650;SDS011;26663;59.302;18.082;2024-01-16T17:32:17;5.83;;;3.10;;
17650;SDS011;26663;59.302;18.082;2024-01-16T17:35:22;3.20;;;2.77;;
17650;SDS011;26663;59.302;18.082;2024-01-16T17:38:27;3.33;;;2.90;;
17650;SDS011;26663;59.302;18.082;2024-01-16T17:41:35;4.10;;;3.70;;
17650;SDS011;26663;59.302;18.082;2024-01-16T17:44:45;3.70;;;3.50;;
17650;SDS011;26663;59.302;18.082;2024-01-16T17:47:49;3.80;;;3.27;;
17650;SDS011;26663;59.302;18.082;2024-01-16T17:50:53;3.50;;;3.03;;
17650;SDS011;26663;59.302;18.082;2024-01-16T17:53:59;4.87;;;2.90;;
17650;SDS011;26663;59.302;18.082;2024-01-16T17:57:03;3.83;;;3.40;;
17650;SDS011;26663;59.302;18.082;2024-01-16T18:00:08;2.90;;;2.70;;
17650;SDS011;26663;59.302;18.082;2024-01-16T18:03:13;3.23;;;2.67;;
17650;SDS011;26663;59.302;18.082;2024-01-16T18:06:37;4.43;;;2.90;;
17650;SDS011;26663;59.302;18.082;2024-01-16T18:09:43;3.53;;;2.60;;
17650;SDS011;26663;59.302;18.082;2024-01-16T18:12:49;3.07;;;2.73;;
17650;SDS011;26663;59.302;18.082;2024-01-16T18:15:53;3.00;;;2.80;;
17650;SDS011;26663;59.302;18.082;2024-01-16T18:18:59;2.60;;;2.43;;